sensor_id;sensor_type;location;lat;lon;timestamp;P1;durP1;ratioP1;P2;durP2;ratioP2
24663;SDS011;12791;50.992;13.788;2023-05-10T00:00:17;2.30;;;1.55;;
24663;SDS011;12791;50.992;13.788;2023-05-10T00:02:43;1.45;;;1.40;;
24663;SDS011;12791;50.992;13.788;2023-05-10T00:05:10;3.40;;;1.65;;
24663;SDS011;12791;50.992;13.788;2023-05-10T00:07:37;1.40;;;1.30;;
24663;SDS011;12791;50.992;13.788;2023-05-10T00:10:04;2.70;;;1.98;;
24663;SDS011;12791;50.992;13.788;2023-05-10T00:12:31;2.15;;;1.60;;
24663;SDS011;12791;50.992;13.788;2023-05-10T00:14:58;3.95;;;1.77;;
24663;SDS011;12791;50.992;13.788;2023-05-10T00:17:25;2.17;;;1.63;;
24663;SDS011;12791;50.992;13.788;2023-05-10T00:19:52;2.25;;;1.63;;
24663;SDS011;12791;50.992;13.788;2023-05-10T00:22:19;2.65;;;1.35;;
24663;SDS011;12791;50.992;13.788;2023-05-10T00:24:46;3.47;;;1.52;;
24663;SDS011;12791;50.992;13.788;2023-05-10T00:27:12;3.15;;;2.13;;
24663;SDS011;12791;50.992;13.788;2023-05-10T00:29:39;1.33;;;1.23;;
24663;SDS011;12791;50.992;13.788;2023-05-10T00:32:07;2.00;;;1.38;;
24663;SDS011;12791;50.992;13.788;2023-05-10T00:34:34;1.58;;;1.48;;
24663;SDS011;12791;50.992;13.788;2023-05-10T00:37:00;1.77;;;1.67;;
24663;SDS011;12791;50.992;13.788;2023-05-10T00:39:27;2.38;;;1.80;;
24663;SDS011;12791;50.992;13.788;2023-05-10T00:41:54;1.45;;;1.35;;
24663;SDS011;12791;50.992;13.788;2023-05-10T00:44:20;2.28;;;1.73;;
24663;SDS011;12791;50.992;13.788;2023-05-10T00:46:48;1.70;;;1.50;;
24663;SDS011;12791;50.992;13.788;2023-05-10T00:49:16;1.27;;;1.27;;
24663;SDS011;12791;50.992;13.788;2023-05-10T00:51:43;3.88;;;1.60;;
24663;SDS011;12791;50.992;13.788;2023-05-10T00:54:11;1.33;;;1.23;;
24663;SDS011;12791;50.992;13.788;2023-05-10T00:56:39;2.85;;;1.55;;
24663;SDS011;12791;50.992;13.788;2023-05-10T00:59:07;1.45;;;1.35;;
24663;SDS011;12791;50.992;13.788;2023-05-10T01:01:34;4.53;;;1.40;;
24663;SDS011;12791;50.992;13.788;2023-05-10T01:04:01;1.98;;;1.30;;
24663;SDS011;12791;50.992;13.788;2023-05-10T01:06:29;1.50;;;1.40;;
24663;SDS011;12791;50.992;13.788;2023-05-10T01:08:57;1.63;;;1.52;;
24663;SDS011;12791;50.992;13.788;2023-05-10T01:11:23;2.47;;;1.40;;
24663;SDS011;12791;50.992;13.788;2023-05-10T01:13:52;2.90;;;1.58;;
24663;SDS011;12791;50.992;13.788;2023-05-10T01:16:21;1.90;;;1.45;;
24663;SDS011;12791;50.992;13.788;2023-05-10T01:18:49;2.13;;;1.55;;
24663;SDS011;12791;50.992;13.788;2023-05-10T01:21:22;2.05;;;1.20;;
24663;SDS011;12791;50.992;13.788;2023-05-10T01:24:07;2.03;;;1.20;;
24663;SDS011;12791;50.992;13.788;2023-05-10T01:29:46;3.83;;;1.42;;
24663;SDS011;12791;50.992;13.788;2023-05-10T01:32:36;3.05;;;1.73;;
24663;SDS011;12791;50.992;13.788;2023-05-10T01:35:09;1.55;;;1.45;;
24663;SDS011;12791;50.992;13.788;2023-05-10T01:37:44;2.60;;;1.52;;
24663;SDS011;12791;50.992;13.788;2023-05-10T01:40:16;1.65;;;1.20;;
24663;SDS011;12791;50.992;13.788;2023-05-10T01:42:48;2.92;;;1.60;;
24663;SDS011;12791;50.992;13.788;2023-05-10T01:45:18;1.63;;;1.40;;
24663;SDS011;12791;50.992;13.788;2023-05-10T01:47:53;2.58;;;1.52;;
24663;SDS011;12791;50.992;13.788;2023-05-10T01:50:30;1.73;;;1.33;;
24663;SDS011;12791;50.992;13.788;2023-05-10T01:52:59;1.77;;;1.25;;
24663;SDS011;12791;50.992;13.788;2023-05-10T01:55:28;1.90;;;1.40;;
24663;SDS011;12791;50.992;13.788;2023-05-10T01:57:58;1.40;;;1.30;;
24663;SDS011;12791;50.992;13.788;2023-05-10T02:00:29;2.83;;;1.10;;
24663;SDS011;12791;50.992;13.788;2023-05-10T02:02:58;3.50;;;1.70;;
24663;SDS011;12791;50.992;13.788;2023-05-10T02:05:27;2.42;;;1.30;;
24663;SDS011;12791;50.992;13.788;2023-05-10T02:07:56;2.10;;;1.60;;
24663;SDS011;12791;50.992;13.788;2023-05-10T02:10:25;1.77;;;1.67;;
24663;SDS011;12791;50.992;13.788;2023-05-10T02:12:53;1.45;;;1.35;;
24663;SDS011;12791;50.992;13.788;2023-05-10T02:15:21;1.88;;;1.15;;
24663;SDS011;12791;50.992;13.788;2023-05-10T02:17:50;1.20;;;1.20;;
24663;SDS011;12791;50.992;13.788;2023-05-10T02:20:19;2.72;;;1.60;;
24663;SDS011;12791;50.992;13.788;2023-05-10T02:22:48;1.65;;;1.55;;
24663;SDS011;12791;50.992;13.788;2023-05-10T02:25:16;1.40;;;1.30;;
24663;SDS011;12791;50.992;13.788;2023-05-10T02:27:45;1.60;;;1.50;;
24663;SDS011;12791;50.992;13.788;2023-05-10T02:30:13;2.05;;;1.40;;
24663;SDS011;12791;50.992;13.788;2023-05-10T02:32:40;3.88;;;1.65;;
24663;SDS011;12791;50.992;13.788;2023-05-10T02:35:08;2.10;;;1.65;;
24663;SDS011;12791;50.992;13.788;2023-05-10T02:37:38;4.97;;;1.88;;
24663;SDS011;12791;50.992;13.788;2023-05-10T02:40:06;1.42;;;1.33;;
24663;SDS011;12791;50.992;13.788;2023-05-10T02:42:35;1.17;;;1.10;;
24663;SDS011;12791;50.992;13.788;2023-05-10T02:45:05;1.98;;;1.42;;
24663;SDS011;12791;50.992;13.788;2023-05-10T02:47:37;2.00;;;1.67;;
24663;SDS011;12791;50.992;13.788;2023-05-10T02:50:04;2.03;;;1.70;;
24663;SDS011;12791;50.992;13.788;2023-05-10T02:52:36;1.95;;;1.40;;
24663;SDS011;12791;50.992;13.788;2023-05-10T02:55:09;1.38;;;1.27;;
24663;SDS011;12791;50.992;13.788;2023-05-10T02:57:38;2.70;;;1.45;;
24663;SDS011;12791;50.992;13.788;2023-05-10T03:00:09;1.60;;;1.50;;
24663;SDS011;12791;50.992;13.788;2023-05-10T03:02:36;2.95;;;1.60;;
24663;SDS011;12791;50.992;13.788;2023-05-10T03:05:03;1.60;;;1.40;;
24663;SDS011;12791;50.992;13.788;2023-05-10T03:07:30;1.70;;;1.50;;
24663;SDS011;12791;50.992;13.788;2023-05-10T03:09:58;1.55;;;1.40;;
24663;SDS011;12791;50.992;13.788;2023-05-10T03:12:27;1.63;;;1.52;;
24663;SDS011;12791;50.992;13.788;2023-05-10T03:15:06;1.80;;;1.70;;
24663;SDS011;12791;50.992;13.788;2023-05-10T03:17:41;1.48;;;1.30;;
24663;SDS011;12791;50.992;13.788;2023-05-10T03:20:16;3.35;;;1.52;;
24663;SDS011;12791;50.992;13.788;2023-05-10T03:22:50;2.17;;;1.73;;
24663;SDS011;12791;50.992;13.788;2023-05-10T03:25:22;1.65;;;1.50;;
24663;SDS011;12791;50.992;13.788;2023-05-10T03:27:49;2.20;;;1.50;;
24663;SDS011;12791;50.992;13.788;2023-05-10T03:30:18;1.85;;;1.55;;
24663;SDS011;12791;50.992;13.788;2023-05-10T03:32:45;1.75;;;1.65;;
24663;SDS011;12791;50.992;13.788;2023-05-10T03:35:12;1.45;;;1.35;;
24663;SDS011;12791;50.992;13.788;2023-05-10T03:37:39;1.60;;;1.40;;
24663;SDS011;12791;50.992;13.788;2023-05-10T03:40:06;1.40;;;1.30;;
24663;SDS011;12791;50.992;13.788;2023-05-10T03:42:35;3.00;;;1.70;;
24663;SDS011;12791;50.992;13.788;2023-05-10T03:45:02;1.90;;;1.80;;
24663;SDS011;12791;50.992;13.788;2023-05-10T03:47:28;1.90;;;1.42;;
24663;SDS011;12791;50.992;13.788;2023-05-10T03:49:55;1.70;;;1.60;;
24663;SDS011;12791;50.992;13.788;2023-05-10T03:52:22;1.38;;;1.27;;
24663;SDS011;12791;50.992;13.788;2023-05-10T03:54:48;1.60;;;1.40;;
24663;SDS011;12791;50.992;13.788;2023-05-10T03:57:15;1.88;;;1.42;;
24663;SDS011;12791;50.992;13.788;2023-05-10T03:59:43;1.60;;;1.50;;
24663;SDS011;12791;50.992;13.788;2023-05-10T04:02:10;2.30;;;1.35;;
24663;SDS011;12791;50.992;13.788;2023-05-10T04:04:36;1.85;;;1.75;;
24663;SDS011;12791;50.992;13.788;2023-05-10T04:07:03;2.22;;;1.45;;
24663;SDS011;12791;50.992;13.788;2023-05-10T04:09:30;1.83;;;1.50;;
24663;SDS011;12791;50.992;13.788;2023-05-10T04:11:58;1.10;;;1.10;;
24663;SDS011;12791;50.992;13.788;2023-05-10T04:14:25;2.60;;;1.63;;
24663;SDS011;12791;50.992;13.788;2023-05-10T04:16:53;1.40;;;1.30;;
24663;SDS011;12791;50.992;13.788;2023-05-10T04:19:20;1.60;;;1.50;;
24663;SDS011;12791;50.992;13.788;2023-05-10T04:21:46;1.77;;;1.40;;
24663;SDS011;12791;50.992;13.788;2023-05-10T04:24:13;1.77;;;1.67;;
24663;SDS011;12791;50.992;13.788;2023-05-10T04:26:40;1.40;;;1.30;;
24663;SDS011;12791;50.992;13.788;2023-05-10T04:29:06;2.17;;;1.48;;
24663;SDS011;12791;50.992;13.788;2023-05-10T04:31:33;2.75;;;1.60;;
24663;SDS011;12791;50.992;13.788;2023-05-10T04:34:02;2.63;;;1.23;;
24663;SDS011;12791;50.992;13.788;2023-05-10T04:36:29;2.38;;;1.60;;
24663;SDS011;12791;50.992;13.788;2023-05-10T04:38:57;3.67;;;1.40;;
24663;SDS011;12791;50.992;13.788;2023-05-10T04:41:24;1.50;;;1.40;;
24663;SDS011;12791;50.992;13.788;2023-05-10T04:43:50;1.77;;;1.67;;
24663;SDS011;12791;50.992;13.788;2023-05-10T04:46:17;3.22;;;1.35;;
24663;SDS011;12791;50.992;13.788;2023-05-10T04:48:44;2.42;;;2.08;;
24663;SDS011;12791;50.992;13.788;2023-05-10T04:51:12;1.60;;;1.50;;
24663;SDS011;12791;50.992;13.788;2023-05-10T04:53:39;1.90;;;1.30;;
24663;SDS011;12791;50.992;13.788;2023-05-10T04:56:06;2.33;;;1.33;;
24663;SDS011;12791;50.992;13.788;2023-05-10T04:58:33;1.73;;;1.27;;
24663;SDS011;12791;50.992;13.788;2023-05-10T05:01:04;2.17;;;1.30;;
24663;SDS011;12791;50.992;13.788;2023-05-10T05:03:31;1.75;;;1.65;;
24663;SDS011;12791;50.992;13.788;2023-05-10T05:05:58;3.03;;;1.40;;
24663;SDS011;12791;50.992;13.788;2023-05-10T05:08:26;1.60;;;1.50;;
24663;SDS011;12791;50.992;13.788;2023-05-10T05:10:53;1.85;;;1.30;;
24663;SDS011;12791;50.992;13.788;2023-05-10T05:13:19;3.88;;;1.40;;
24663;SDS011;12791;50.992;13.788;2023-05-10T05:15:46;1.52;;;1.30;;
24663;SDS011;12791;50.992;13.788;2023-05-10T05:18:12;1.92;;;1.67;;
24663;SDS011;12791;50.992;13.788;2023-05-10T05:20:39;2.15;;;1.35;;
24663;SDS011;12791;50.992;13.788;2023-05-10T05:23:06;2.40;;;1.42;;
24663;SDS011;12791;50.992;13.788;2023-05-10T05:25:34;2.95;;;1.33;;
24663;SDS011;12791;50.992;13.788;2023-05-10T05:28:00;4.15;;;1.30;;
24663;SDS011;12791;50.992;13.788;2023-05-10T05:30:27;3.55;;;1.58;;
24663;SDS011;12791;50.992;13.788;2023-05-10T05:32:54;3.75;;;1.70;;
24663;SDS011;12791;50.992;13.788;2023-05-10T05:35:21;2.00;;;1.27;;
24663;SDS011;12791;50.992;13.788;2023-05-10T05:37:48;1.77;;;1.55;;
24663;SDS011;12791;50.992;13.788;2023-05-10T05:40:14;2.88;;;1.38;;
24663;SDS011;12791;50.992;13.788;2023-05-10T05:42:42;1.45;;;1.23;;
24663;SDS011;12791;50.992;13.788;2023-05-10T05:45:09;2.40;;;1.33;;
24663;SDS011;12791;50.992;13.788;2023-05-10T05:47:37;2.22;;;1.38;;
24663;SDS011;12791;50.992;13.788;2023-05-10T05:50:05;1.45;;;1.17;;
24663;SDS011;12791;50.992;13.788;2023-05-10T05:52:32;2.78;;;1.33;;
24663;SDS011;12791;50.992;13.788;2023-05-10T05:54:59;2.95;;;1.58;;
24663;SDS011;12791;50.992;13.788;2023-05-10T05:57:25;1.98;;;1.40;;
24663;SDS011;12791;50.992;13.788;2023-05-10T05:59:53;3.28;;;1.70;;
24663;SDS011;12791;50.992;13.788;2023-05-10T06:02:20;4.10;;;1.30;;
24663;SDS011;12791;50.992;13.788;2023-05-10T06:04:46;6.53;;;2.05;;
24663;SDS011;12791;50.992;13.788;2023-05-10T06:07:13;1.65;;;1.50;;
24663;SDS011;12791;50.992;13.788;2023-05-10T06:09:40;2.55;;;1.63;;
24663;SDS011;12791;50.992;13.788;2023-05-10T06:12:06;2.70;;;1.67;;
24663;SDS011;12791;50.992;13.788;2023-05-10T06:14:33;3.38;;;1.70;;
24663;SDS011;12791;50.992;13.788;2023-05-10T06:17:01;4.03;;;1.70;;
24663;SDS011;12791;50.992;13.788;2023-05-10T06:19:29;4.00;;;1.83;;
24663;SDS011;12791;50.992;13.788;2023-05-10T06:21:56;3.83;;;1.55;;
24663;SDS011;12791;50.992;13.788;2023-05-10T06:24:23;2.67;;;1.70;;
24663;SDS011;12791;50.992;13.788;2023-05-10T06:26:50;7.90;;;1.65;;
24663;SDS011;12791;50.992;13.788;2023-05-10T06:29:16;2.00;;;1.90;;
24663;SDS011;12791;50.992;13.788;2023-05-10T06:31:43;3.33;;;1.70;;
24663;SDS011;12791;50.992;13.788;2023-05-10T06:34:11;1.75;;;1.50;;
24663;SDS011;12791;50.992;13.788;2023-05-10T06:36:38;3.03;;;1.50;;
24663;SDS011;12791;50.992;13.788;2023-05-10T06:39:05;3.42;;;1.60;;
24663;SDS011;12791;50.992;13.788;2023-05-10T06:41:32;2.13;;;1.48;;
24663;SDS011;12791;50.992;13.788;2023-05-10T06:43:58;2.92;;;2.08;;
24663;SDS011;12791;50.992;13.788;2023-05-10T06:46:25;4.68;;;1.60;;
24663;SDS011;12791;50.992;13.788;2023-05-10T06:48:51;2.53;;;1.38;;
24663;SDS011;12791;50.992;13.788;2023-05-10T06:51:19;3.25;;;2.10;;
24663;SDS011;12791;50.992;13.788;2023-05-10T06:53:47;2.05;;;1.50;;
24663;SDS011;12791;50.992;13.788;2023-05-10T06:56:13;2.92;;;1.80;;
24663;SDS011;12791;50.992;13.788;2023-05-10T06:58:40;3.78;;;2.20;;
24663;SDS011;12791;50.992;13.788;2023-05-10T07:01:06;4.57;;;1.85;;
24663;SDS011;12791;50.992;13.788;2023-05-10T07:03:33;2.45;;;1.73;;
24663;SDS011;12791;50.992;13.788;2023-05-10T07:06:00;2.15;;;1.83;;
24663;SDS011;12791;50.992;13.788;2023-05-10T07:08:30;1.90;;;1.63;;
24663;SDS011;12791;50.992;13.788;2023-05-10T07:11:00;3.10;;;1.90;;
24663;SDS011;12791;50.992;13.788;2023-05-10T07:13:28;3.03;;;1.80;;
24663;SDS011;12791;50.992;13.788;2023-05-10T07:15:55;2.92;;;1.83;;
24663;SDS011;12791;50.992;13.788;2023-05-10T07:18:22;1.83;;;1.73;;
24663;SDS011;12791;50.992;13.788;2023-05-10T07:20:48;2.65;;;1.65;;
24663;SDS011;12791;50.992;13.788;2023-05-10T07:23:15;2.10;;;1.50;;
24663;SDS011;12791;50.992;13.788;2023-05-10T07:25:45;3.17;;;1.98;;
24663;SDS011;12791;50.992;13.788;2023-05-10T07:28:12;4.03;;;1.52;;
24663;SDS011;12791;50.992;13.788;2023-05-10T07:30:39;3.22;;;1.60;;
24663;SDS011;12791;50.992;13.788;2023-05-10T07:33:05;2.22;;;1.65;;
24663;SDS011;12791;50.992;13.788;2023-05-10T07:35:33;3.75;;;1.92;;
24663;SDS011;12791;50.992;13.788;2023-05-10T07:37:59;3.15;;;1.63;;
24663;SDS011;12791;50.992;13.788;2023-05-10T07:40:26;2.53;;;1.75;;
24663;SDS011;12791;50.992;13.788;2023-05-10T07:42:55;3.58;;;1.60;;
24663;SDS011;12791;50.992;13.788;2023-05-10T07:45:21;2.80;;;1.70;;
24663;SDS011;12791;50.992;13.788;2023-05-10T07:47:48;2.10;;;1.90;;
24663;SDS011;12791;50.992;13.788;2023-05-10T07:50:15;1.95;;;1.60;;
24663;SDS011;12791;50.992;13.788;2023-05-10T07:52:41;1.90;;;1.67;;
24663;SDS011;12791;50.992;13.788;2023-05-10T07:55:08;3.58;;;1.80;;
24663;SDS011;12791;50.992;13.788;2023-05-10T07:57:35;1.77;;;1.63;;
24663;SDS011;12791;50.992;13.788;2023-05-10T08:00:04;2.33;;;1.65;;
24663;SDS011;12791;50.992;13.788;2023-05-10T08:02:32;3.00;;;2.03;;
24663;SDS011;12791;50.992;13.788;2023-05-10T08:04:59;2.50;;;2.30;;
24663;SDS011;12791;50.992;13.788;2023-05-10T08:07:25;2.28;;;2.08;;
24663;SDS011;12791;50.992;13.788;2023-05-10T08:09:52;2.20;;;2.10;;
24663;SDS011;12791;50.992;13.788;2023-05-10T08:12:19;1.70;;;1.60;;
24663;SDS011;12791;50.992;13.788;2023-05-10T08:14:45;2.58;;;2.00;;
24663;SDS011;12791;50.992;13.788;2023-05-10T08:17:13;1.83;;;1.73;;
24663;SDS011;12791;50.992;13.788;2023-05-10T08:19:40;2.05;;;1.95;;
24663;SDS011;12791;50.992;13.788;2023-05-10T08:22:06;2.90;;;1.95;;
24663;SDS011;12791;50.992;13.788;2023-05-10T08:24:33;3.65;;;2.22;;
24663;SDS011;12791;50.992;13.788;2023-05-10T08:27:03;2.95;;;2.20;;
24663;SDS011;12791;50.992;13.788;2023-05-10T08:29:30;4.40;;;2.20;;
24663;SDS011;12791;50.992;13.788;2023-05-10T08:31:57;2.10;;;1.90;;
24663;SDS011;12791;50.992;13.788;2023-05-10T08:34:25;1.88;;;1.75;;
24663;SDS011;12791;50.992;13.788;2023-05-10T08:36:52;3.08;;;2.58;;
24663;SDS011;12791;50.992;13.788;2023-05-10T08:39:18;3.92;;;2.53;;
24663;SDS011;12791;50.992;13.788;2023-05-10T08:41:45;5.65;;;2.40;;
24663;SDS011;12791;50.992;13.788;2023-05-10T08:44:13;4.47;;;3.17;;
24663;SDS011;12791;50.992;13.788;2023-05-10T08:46:43;4.45;;;2.42;;
24663;SDS011;12791;50.992;13.788;2023-05-10T08:49:13;1.98;;;1.77;;
24663;SDS011;12791;50.992;13.788;2023-05-10T08:51:44;4.00;;;2.28;;
24663;SDS011;12791;50.992;13.788;2023-05-10T08:54:16;2.90;;;2.50;;
24663;SDS011;12791;50.992;13.788;2023-05-10T08:56:43;2.83;;;1.95;;
24663;SDS011;12791;50.992;13.788;2023-05-10T08:59:10;2.92;;;2.25;;
24663;SDS011;12791;50.992;13.788;2023-05-10T09:01:38;2.50;;;2.30;;
24663;SDS011;12791;50.992;13.788;2023-05-10T09:04:09;2.60;;;2.30;;
24663;SDS011;12791;50.992;13.788;2023-05-10T09:06:36;2.00;;;1.65;;
24663;SDS011;12791;50.992;13.788;2023-05-10T09:09:05;2.33;;;2.20;;
24663;SDS011;12791;50.992;13.788;2023-05-10T09:11:32;3.95;;;2.53;;
24663;SDS011;12791;50.992;13.788;2023-05-10T09:13:59;10.35;;;1.95;;
24663;SDS011;12791;50.992;13.788;2023-05-10T09:16:27;3.38;;;2.05;;
24663;SDS011;12791;50.992;13.788;2023-05-10T09:18:53;2.88;;;2.60;;
24663;SDS011;12791;50.992;13.788;2023-05-10T09:21:20;2.78;;;2.58;;
24663;SDS011;12791;50.992;13.788;2023-05-10T09:23:47;2.22;;;2.00;;
24663;SDS011;12791;50.992;13.788;2023-05-10T09:26:16;3.30;;;2.35;;
24663;SDS011;12791;50.992;13.788;2023-05-10T09:28:52;3.45;;;2.20;;
24663;SDS011;12791;50.992;13.788;2023-05-10T09:31:20;5.95;;;2.42;;
24663;SDS011;12791;50.992;13.788;2023-05-10T09:33:47;8.30;;;3.30;;
24663;SDS011;12791;50.992;13.788;2023-05-10T09:36:15;5.00;;;3.00;;
24663;SDS011;12791;50.992;13.788;2023-05-10T09:38:44;4.28;;;2.78;;
24663;SDS011;12791;50.992;13.788;2023-05-10T09:41:16;4.45;;;2.38;;
24663;SDS011;12791;50.992;13.788;2023-05-10T09:43:44;3.20;;;2.67;;
24663;SDS011;12791;50.992;13.788;2023-05-10T09:46:10;2.45;;;2.28;;
24663;SDS011;12791;50.992;13.788;2023-05-10T09:48:39;3.88;;;3.10;;
24663;SDS011;12791;50.992;13.788;2023-05-10T09:51:08;3.97;;;2.72;;
24663;SDS011;12791;50.992;13.788;2023-05-10T09:53:35;4.38;;;2.42;;
24663;SDS011;12791;50.992;13.788;2023-05-10T09:56:02;4.82;;;2.92;;
24663;SDS011;12791;50.992;13.788;2023-05-10T09:58:30;4.13;;;2.50;;
24663;SDS011;12791;50.992;13.788;2023-05-10T10:00:56;3.15;;;2.85;;
24663;SDS011;12791;50.992;13.788;2023-05-10T10:03:24;2.78;;;2.55;;
24663;SDS011;12791;50.992;13.788;2023-05-10T10:05:50;3.30;;;3.10;;
24663;SDS011;12791;50.992;13.788;2023-05-10T10:08:18;4.10;;;2.97;;
24663;SDS011;12791;50.992;13.788;2023-05-10T10:10:45;2.80;;;2.28;;
24663;SDS011;12791;50.992;13.788;2023-05-10T10:13:13;3.78;;;3.35;;
24663;SDS011;12791;50.992;13.788;2023-05-10T10:15:41;3.08;;;2.83;;
24663;SDS011;12791;50.992;13.788;2023-05-10T10:18:10;3.03;;;2.83;;
24663;SDS011;12791;50.992;13.788;2023-05-10T10:20:39;2.58;;;2.38;;
24663;SDS011;12791;50.992;13.788;2023-05-10T10:23:05;2.97;;;2.78;;
24663;SDS011;12791;50.992;13.788;2023-05-10T10:25:33;2.47;;;2.30;;
24663;SDS011;12791;50.992;13.788;2023-05-10T10:28:05;3.55;;;2.85;;
24663;SDS011;12791;50.992;13.788;2023-05-10T10:30:42;2.95;;;2.75;;
24663;SDS011;12791;50.992;13.788;2023-05-10T10:33:18;3.53;;;2.83;;
24663;SDS011;12791;50.992;13.788;2023-05-10T10:36:00;2.75;;;2.55;;
24663;SDS011;12791;50.992;13.788;2023-05-10T10:38:35;3.00;;;2.80;;
24663;SDS011;12791;50.992;13.788;2023-05-10T10:41:09;2.63;;;2.22;;
24663;SDS011;12791;50.992;13.788;2023-05-10T10:43:36;4.53;;;3.17;;
24663;SDS011;12791;50.992;13.788;2023-05-10T10:46:11;2.88;;;2.65;;
24663;SDS011;12791;50.992;13.788;2023-05-10T10:48:39;3.13;;;2.60;;
24663;SDS011;12791;50.992;13.788;2023-05-10T10:51:06;2.75;;;2.55;;
24663;SDS011;12791;50.992;13.788;2023-05-10T10:53:33;3.13;;;2.50;;
24663;SDS011;12791;50.992;13.788;2023-05-10T10:56:04;3.35;;;2.83;;
24663;SDS011;12791;50.992;13.788;2023-05-10T10:58:34;3.50;;;3.20;;
24663;SDS011;12791;50.992;13.788;2023-05-10T11:01:12;4.35;;;3.00;;
24663;SDS011;12791;50.992;13.788;2023-05-10T11:03:41;3.67;;;3.17;;
24663;SDS011;12791;50.992;13.788;2023-05-10T11:06:31;2.80;;;2.38;;
24663;SDS011;12791;50.992;13.788;2023-05-10T11:08:59;5.68;;;2.75;;
24663;SDS011;12791;50.992;13.788;2023-05-10T11:11:30;3.05;;;2.38;;
24663;SDS011;12791;50.992;13.788;2023-05-10T11:14:02;3.10;;;2.80;;
24663;SDS011;12791;50.992;13.788;2023-05-10T11:16:40;3.95;;;2.70;;
24663;SDS011;12791;50.992;13.788;2023-05-10T11:19:07;3.42;;;2.60;;
24663;SDS011;12791;50.992;13.788;2023-05-10T11:21:44;4.80;;;2.63;;
24663;SDS011;12791;50.992;13.788;2023-05-10T11:24:12;2.38;;;2.17;;
24663;SDS011;12791;50.992;13.788;2023-05-10T11:26:41;2.78;;;2.58;;
24663;SDS011;12791;50.992;13.788;2023-05-10T11:29:08;3.03;;;2.13;;
24663;SDS011;12791;50.992;13.788;2023-05-10T11:31:38;2.33;;;2.13;;
24663;SDS011;12791;50.992;13.788;2023-05-10T11:34:08;3.63;;;2.30;;
24663;SDS011;12791;50.992;13.788;2023-05-10T11:36:36;3.72;;;2.88;;
24663;SDS011;12791;50.992;13.788;2023-05-10T11:39:03;4.70;;;2.85;;
24663;SDS011;12791;50.992;13.788;2023-05-10T11:41:30;2.83;;;2.72;;
24663;SDS011;12791;50.992;13.788;2023-05-10T11:43:57;3.28;;;3.05;;
24663;SDS011;12791;50.992;13.788;2023-05-10T11:46:25;3.80;;;3.03;;
24663;SDS011;12791;50.992;13.788;2023-05-10T11:48:55;3.70;;;3.05;;
24663;SDS011;12791;50.992;13.788;2023-05-10T11:51:25;3.20;;;2.95;;
24663;SDS011;12791;50.992;13.788;2023-05-10T11:53:52;3.70;;;3.40;;
24663;SDS011;12791;50.992;13.788;2023-05-10T11:56:20;3.63;;;3.10;;
24663;SDS011;12791;50.992;13.788;2023-05-10T11:58:52;3.35;;;2.80;;
24663;SDS011;12791;50.992;13.788;2023-05-10T12:01:20;3.83;;;3.40;;
24663;SDS011;12791;50.992;13.788;2023-05-10T12:03:47;3.25;;;2.95;;
24663;SDS011;12791;50.992;13.788;2023-05-10T12:06:16;3.10;;;2.90;;
24663;SDS011;12791;50.992;13.788;2023-05-10T12:08:44;4.63;;;3.72;;
24663;SDS011;12791;50.992;13.788;2023-05-10T12:11:11;8.27;;;3.58;;
24663;SDS011;12791;50.992;13.788;2023-05-10T12:13:40;3.22;;;2.90;;
24663;SDS011;12791;50.992;13.788;2023-05-10T12:16:15;2.88;;;2.58;;
24663;SDS011;12791;50.992;13.788;2023-05-10T12:18:42;4.43;;;2.50;;
24663;SDS011;12791;50.992;13.788;2023-05-10T12:21:10;2.33;;;2.20;;
24663;SDS011;12791;50.992;13.788;2023-05-10T12:23:38;4.28;;;3.08;;
24663;SDS011;12791;50.992;13.788;2023-05-10T12:26:05;2.35;;;2.20;;
24663;SDS011;12791;50.992;13.788;2023-05-10T12:28:34;2.85;;;2.28;;
24663;SDS011;12791;50.992;13.788;2023-05-10T12:31:01;3.53;;;2.50;;
24663;SDS011;12791;50.992;13.788;2023-05-10T12:33:35;5.03;;;2.92;;
24663;SDS011;12791;50.992;13.788;2023-05-10T12:36:02;2.78;;;2.28;;
24663;SDS011;12791;50.992;13.788;2023-05-10T12:38:29;3.13;;;2.30;;
24663;SDS011;12791;50.992;13.788;2023-05-10T12:41:00;3.42;;;2.20;;
24663;SDS011;12791;50.992;13.788;2023-05-10T12:43:27;2.35;;;2.25;;
24663;SDS011;12791;50.992;13.788;2023-05-10T12:45:54;2.10;;;2.00;;
24663;SDS011;12791;50.992;13.788;2023-05-10T12:48:21;2.42;;;2.33;;
24663;SDS011;12791;50.992;13.788;2023-05-10T12:50:47;4.18;;;2.38;;
24663;SDS011;12791;50.992;13.788;2023-05-10T12:53:14;3.90;;;2.08;;
24663;SDS011;12791;50.992;13.788;2023-05-10T12:55:41;2.95;;;2.75;;
24663;SDS011;12791;50.992;13.788;2023-05-10T12:58:09;3.20;;;2.40;;
24663;SDS011;12791;50.992;13.788;2023-05-10T13:00:36;2.95;;;2.53;;
24663;SDS011;12791;50.992;13.788;2023-05-10T13:03:03;3.08;;;2.60;;
24663;SDS011;12791;50.992;13.788;2023-05-10T13:05:31;2.22;;;2.03;;
24663;SDS011;12791;50.992;13.788;2023-05-10T13:07:57;2.40;;;2.30;;
24663;SDS011;12791;50.992;13.788;2023-05-10T13:10:24;2.75;;;2.15;;
24663;SDS011;12791;50.992;13.788;2023-05-10T13:12:50;2.33;;;2.15;;
24663;SDS011;12791;50.992;13.788;2023-05-10T13:15:18;3.03;;;2.05;;
24663;SDS011;12791;50.992;13.788;2023-05-10T13:17:45;2.60;;;2.40;;
24663;SDS011;12791;50.992;13.788;2023-05-10T13:20:12;2.60;;;2.40;;
24663;SDS011;12791;50.992;13.788;2023-05-10T13:22:39;2.58;;;2.03;;
24663;SDS011;12791;50.992;13.788;2023-05-10T13:25:06;2.28;;;2.10;;
24663;SDS011;12791;50.992;13.788;2023-05-10T13:27:33;2.10;;;2.00;;
24663;SDS011;12791;50.992;13.788;2023-05-10T13:30:00;3.40;;;2.28;;
24663;SDS011;12791;50.992;13.788;2023-05-10T13:32:29;2.17;;;1.90;;
24663;SDS011;12791;50.992;13.788;2023-05-10T13:34:56;3.10;;;2.22;;
24663;SDS011;12791;50.992;13.788;2023-05-10T13:37:22;1.67;;;1.60;;
24663;SDS011;12791;50.992;13.788;2023-05-10T13:39:49;2.45;;;1.60;;
24663;SDS011;12791;50.992;13.788;2023-05-10T13:42:16;1.70;;;1.60;;
24663;SDS011;12791;50.992;13.788;2023-05-10T13:44:43;1.95;;;1.85;;
24663;SDS011;12791;50.992;13.788;2023-05-10T13:47:10;2.35;;;1.90;;
24663;SDS011;12791;50.992;13.788;2023-05-10T13:49:38;2.40;;;2.15;;
24663;SDS011;12791;50.992;13.788;2023-05-10T13:52:04;1.80;;;1.70;;
24663;SDS011;12791;50.992;13.788;2023-05-10T13:54:31;2.00;;;1.90;;
24663;SDS011;12791;50.992;13.788;2023-05-10T13:56:58;3.28;;;2.30;;
24663;SDS011;12791;50.992;13.788;2023-05-10T13:59:25;4.47;;;2.25;;
24663;SDS011;12791;50.992;13.788;2023-05-10T14:01:52;2.50;;;2.30;;
24663;SDS011;12791;50.992;13.788;2023-05-10T14:04:18;2.33;;;1.98;;
24663;SDS011;12791;50.992;13.788;2023-05-10T14:06:46;5.70;;;1.77;;
24663;SDS011;12791;50.992;13.788;2023-05-10T14:09:13;1.90;;;1.83;;
24663;SDS011;12791;50.992;13.788;2023-05-10T14:11:40;2.25;;;1.70;;
24663;SDS011;12791;50.992;13.788;2023-05-10T14:14:09;2.05;;;1.88;;
24663;SDS011;12791;50.992;13.788;2023-05-10T14:16:36;2.35;;;1.80;;
24663;SDS011;12791;50.992;13.788;2023-05-10T14:19:03;4.03;;;1.80;;
24663;SDS011;12791;50.992;13.788;2023-05-10T14:21:29;2.53;;;2.05;;
24663;SDS011;12791;50.992;13.788;2023-05-10T14:23:57;2.67;;;1.88;;
24663;SDS011;12791;50.992;13.788;2023-05-10T14:26:24;1.83;;;1.73;;
24663;SDS011;12791;50.992;13.788;2023-05-10T14:28:51;1.80;;;1.70;;
24663;SDS011;12791;50.992;13.788;2023-05-10T14:31:18;1.88;;;1.77;;
24663;SDS011;12791;50.992;13.788;2023-05-10T14:33:45;1.88;;;1.63;;
24663;SDS011;12791;50.992;13.788;2023-05-10T14:36:12;4.10;;;2.35;;
24663;SDS011;12791;50.992;13.788;2023-05-10T14:38:38;1.85;;;1.75;;
24663;SDS011;12791;50.992;13.788;2023-05-10T14:41:06;2.08;;;1.60;;